Map Display - EGKK to LSZH
(last flight recorded 24-06-2019, 17:13 - Adrian Smith)

Aircraft Weights    Units : Maximums
Passengers :   124  
Cargo : kg 3,800 kg
Suggested Fuel Load : kg 15,682 kg
 
     
 
Dry Operating : 27,448 kg    
Total Payload : 0 kg 15,643 kg
 
Take Off : 34,667 kg 58,105 kg
 
Expected Landing : 30,801 kg 46,720 kg

Christopher Manlow,  B73Q ,  G-BKYE,  .

Route Distance Previous
Flights
Average
Duration
Average
Fuel Flow
Average
Fuel Use
EGKK - Gatwick, London
LSZH - Zurich, Switzerland
407 nm 8 01:24 2,794 kg/h 3,866 kg

Current weather :-
2019/06/24 18:09
TAF EGKK 241658Z 2418/2524 22006KT 9999 FEW030 PROB30
TEMPO 2418/2422 9000 -SHRA
BECMG 2422/2501 36010KT 8000 RA PROB40
TEMPO 2422/2503 3000 +TSRA BKN009 BKN045CB PROB30
TEMPO 2503/2506 VRB15G25KT 1200 +TSRA BR BKN002
BECMG 2506/2508 9999 NSW PROB30
TEMPO 2508/2510 8000 BKN008 PROB30
TEMPO 2512/2518 6000 SHRA
2019/06/24 21:36
TAF LSZH 242025Z 2421/2603 VRB03KT CAVOK TX34/2515Z TN14/2504Z PROB30 2502/2505 9999 MIFG NSC
BECMG 2511/2513 06007KT

Back to Virtual Airline